sensor_id;sensor_type;location;lat;lon;timestamp;pressure;altitude;pressure_sealevel;temperature;humidity
85157;BME280;75524;50.698;7.196;2024-02-21T00:01:16;101495.69;;;7.44;94.70
85157;BME280;75524;50.698;7.196;2024-02-21T00:03:43;101492.38;;;7.41;94.51
85157;BME280;75524;50.698;7.196;2024-02-21T00:06:10;101486.97;;;7.41;94.38
85157;BME280;75524;50.698;7.196;2024-02-21T00:08:36;101488.81;;;7.41;94.37
85157;BME280;75524;50.698;7.196;2024-02-21T00:11:03;101490.31;;;7.44;94.49
85157;BME280;75524;50.698;7.196;2024-02-21T00:13:30;101483.94;;;7.45;94.23
85157;BME280;75524;50.698;7.196;2024-02-21T00:15:56;101483.28;;;7.43;93.92
85157;BME280;75524;50.698;7.196;2024-02-21T00:18:23;101468.16;;;7.41;94.21
85157;BME280;75524;50.698;7.196;2024-02-21T00:20:55;101472.53;;;7.43;94.24
85157;BME280;75524;50.698;7.196;2024-02-21T00:23:22;101465.31;;;7.43;93.99
85157;BME280;75524;50.698;7.196;2024-02-21T00:25:48;101460.94;;;7.42;93.96
85157;BME280;75524;50.698;7.196;2024-02-21T00:28:15;101460.09;;;7.41;94.04
85157;BME280;75524;50.698;7.196;2024-02-21T00:30:41;101458.41;;;7.40;93.96
85157;BME280;75524;50.698;7.196;2024-02-21T00:33:07;101463.63;;;7.42;94.02
85157;BME280;75524;50.698;7.196;2024-02-21T00:35:34;101467.31;;;7.41;94.12
85157;BME280;75524;50.698;7.196;2024-02-21T00:38:00;101457.72;;;7.38;94.18
85157;BME280;75524;50.698;7.196;2024-02-21T00:40:27;101448.16;;;7.36;94.37
85157;BME280;75524;50.698;7.196;2024-02-21T00:42:53;101450.69;;;7.37;94.54
85157;BME280;75524;50.698;7.196;2024-02-21T00:45:20;101443.47;;;7.38;94.48
85157;BME280;75524;50.698;7.196;2024-02-21T00:47:46;101446.97;;;7.38;94.38
85157;BME280;75524;50.698;7.196;2024-02-21T00:50:13;101442.47;;;7.39;94.32
85157;BME280;75524;50.698;7.196;2024-02-21T00:52:39;101442.28;;;7.40;94.33
85157;BME280;75524;50.698;7.196;2024-02-21T00:55:06;101437.25;;;7.37;94.26
85157;BME280;75524;50.698;7.196;2024-02-21T00:57:33;101441.59;;;7.38;94.54
85157;BME280;75524;50.698;7.196;2024-02-21T00:59:59;101444.63;;;7.35;94.54
85157;BME280;75524;50.698;7.196;2024-02-21T01:02:26;101441.59;;;7.38;94.62
85157;BME280;75524;50.698;7.196;2024-02-21T01:04:52;101437.41;;;7.36;94.67
85157;BME280;75524;50.698;7.196;2024-02-21T01:07:19;101442.28;;;7.40;94.74
85157;BME280;75524;50.698;7.196;2024-02-21T01:09:45;101431.88;;;7.37;94.69
85157;BME280;75524;50.698;7.196;2024-02-21T01:12:12;101434.72;;;7.36;94.94
85157;BME280;75524;50.698;7.196;2024-02-21T01:14:38;101425.81;;;7.35;94.82
85157;BME280;75524;50.698;7.196;2024-02-21T01:17:05;101426.50;;;7.37;95.00
85157;BME280;75524;50.698;7.196;2024-02-21T01:19:32;101433.88;;;7.35;94.98
85157;BME280;75524;50.698;7.196;2024-02-21T01:21:59;101435.41;;;7.38;95.29
85157;BME280;75524;50.698;7.196;2024-02-21T01:24:25;101425.81;;;7.35;95.20
85157;BME280;75524;50.698;7.196;2024-02-21T01:26:52;101417.06;;;7.33;95.17
85157;BME280;75524;50.698;7.196;2024-02-21T01:29:18;101411.69;;;7.33;95.50
85157;BME280;75524;50.698;7.196;2024-02-21T01:31:44;101403.63;;;7.33;95.59
85157;BME280;75524;50.698;7.196;2024-02-21T01:34:11;101401.63;;;7.35;95.65
85157;BME280;75524;50.698;7.196;2024-02-21T01:36:37;101398.94;;;7.35;95.78
85157;BME280;75524;50.698;7.196;2024-02-21T01:39:04;101391.88;;;7.34;96.46
85157;BME280;75524;50.698;7.196;2024-02-21T01:41:31;101386.50;;;7.34;95.99
85157;BME280;75524;50.698;7.196;2024-02-21T01:43:58;101396.44;;;7.34;96.10
85157;BME280;75524;50.698;7.196;2024-02-21T01:46:24;101389.53;;;7.31;96.20
85157;BME280;75524;50.698;7.196;2024-02-21T01:48:56;101386.84;;;7.31;96.27
85157;BME280;75524;50.698;7.196;2024-02-21T01:51:23;101377.78;;;7.32;96.24
85157;BME280;75524;50.698;7.196;2024-02-21T01:53:51;101371.56;;;7.32;96.56
85157;BME280;75524;50.698;7.196;2024-02-21T01:56:18;101374.59;;;7.29;96.14
85157;BME280;75524;50.698;7.196;2024-02-21T01:58:46;101379.13;;;7.28;96.14
85157;BME280;75524;50.698;7.196;2024-02-21T02:01:14;101367.53;;;7.28;96.32
85157;BME280;75524;50.698;7.196;2024-02-21T02:03:45;101365.84;;;7.27;96.59
85157;BME280;75524;50.698;7.196;2024-02-21T02:06:12;101369.72;;;7.24;96.68
85157;BME280;75524;50.698;7.196;2024-02-21T02:08:39;101365.19;;;7.24;96.78
85157;BME280;75524;50.698;7.196;2024-02-21T02:11:05;101362.53;;;7.24;96.81
85157;BME280;75524;50.698;7.196;2024-02-21T02:13:33;101361.84;;;7.22;97.27
85157;BME280;75524;50.698;7.196;2024-02-21T02:16:00;101354.78;;;7.21;97.37
85157;BME280;75524;50.698;7.196;2024-02-21T02:18:26;101352.78;;;7.23;97.53
85157;BME280;75524;50.698;7.196;2024-02-21T02:20:53;101352.94;;;7.22;97.65
85157;BME280;75524;50.698;7.196;2024-02-21T02:23:29;101348.56;;;7.21;97.54
85157;BME280;75524;50.698;7.196;2024-02-21T02:25:56;101350.41;;;7.20;97.67
85157;BME280;75524;50.698;7.196;2024-02-21T02:28:23;101336.81;;;7.22;97.80
85157;BME280;75524;50.698;7.196;2024-02-21T02:30:50;101333.47;;;7.20;97.85
85157;BME280;75524;50.698;7.196;2024-02-21T02:33:17;101326.56;;;7.17;97.98
85157;BME280;75524;50.698;7.196;2024-02-21T02:35:44;101323.88;;;7.17;98.30
85157;BME280;75524;50.698;7.196;2024-02-21T02:38:11;101325.56;;;7.18;98.35
85157;BME280;75524;50.698;7.196;2024-02-21T02:40:39;101308.59;;;7.18;98.45
85157;BME280;75524;50.698;7.196;2024-02-21T02:43:09;101307.09;;;7.15;98.72
85157;BME280;75524;50.698;7.196;2024-02-21T02:45:35;101301.06;;;7.13;98.79
85157;BME280;75524;50.698;7.196;2024-02-21T02:48:02;101295.50;;;7.15;99.09
85157;BME280;75524;50.698;7.196;2024-02-21T02:50:29;101286.44;;;7.16;98.98
85157;BME280;75524;50.698;7.196;2024-02-21T02:52:56;101296.00;;;7.18;98.83
85157;BME280;75524;50.698;7.196;2024-02-21T02:55:23;101296.34;;;7.15;99.04
85157;BME280;75524;50.698;7.196;2024-02-21T02:57:49;101294.50;;;7.16;99.08
85157;BME280;75524;50.698;7.196;2024-02-21T03:00:16;101292.47;;;7.18;99.13
85157;BME280;75524;50.698;7.196;2024-02-21T03:02:44;101296.34;;;7.15;99.24
85157;BME280;75524;50.698;7.196;2024-02-21T03:05:14;101294.69;;;7.14;99.34
85157;BME280;75524;50.698;7.196;2024-02-21T03:07:44;101287.94;;;7.10;99.70
85157;BME280;75524;50.698;7.196;2024-02-21T03:10:11;101284.63;;;7.08;100.00
85157;BME280;75524;50.698;7.196;2024-02-21T03:12:38;101293.31;;;7.10;100.00
85157;BME280;75524;50.698;7.196;2024-02-21T03:15:05;101290.50;;;7.12;100.00
85157;BME280;75524;50.698;7.196;2024-02-21T03:17:32;101289.81;;;7.09;99.99
85157;BME280;75524;50.698;7.196;2024-02-21T03:20:02;101282.44;;;7.12;100.00
85157;BME280;75524;50.698;7.196;2024-02-21T03:22:32;101266.44;;;7.10;100.00
85157;BME280;75524;50.698;7.196;2024-02-21T03:25:01;101263.13;;;7.08;100.00
85157;BME280;75524;50.698;7.196;2024-02-21T03:27:28;101259.94;;;7.04;100.00
85157;BME280;75524;50.698;7.196;2024-02-21T03:29:54;101244.63;;;7.05;100.00
85157;BME280;75524;50.698;7.196;2024-02-21T03:32:21;101247.50;;;7.03;100.00
85157;BME280;75524;50.698;7.196;2024-02-21T03:34:47;101238.44;;;7.04;100.00
85157;BME280;75524;50.698;7.196;2024-02-21T03:37:14;101241.47;;;7.01;100.00
85157;BME280;75524;50.698;7.196;2024-02-21T03:39:41;101234.59;;;6.99;100.00
85157;BME280;75524;50.698;7.196;2024-02-21T03:42:08;101224.19;;;6.96;100.00
85157;BME280;75524;50.698;7.196;2024-02-21T03:44:34;101239.47;;;6.95;100.00
85157;BME280;75524;50.698;7.196;2024-02-21T03:47:00;101233.09;;;6.96;100.00
85157;BME280;75524;50.698;7.196;2024-02-21T03:49:27;101238.47;;;6.96;100.00
85157;BME280;75524;50.698;7.196;2024-02-21T03:51:54;101230.22;;;6.98;100.00
85157;BME280;75524;50.698;7.196;2024-02-21T03:54:20;101224.84;;;6.98;100.00
85157;BME280;75524;50.698;7.196;2024-02-21T03:56:46;101225.69;;;6.98;100.00
85157;BME280;75524;50.698;7.196;2024-02-21T03:59:14;101225.69;;;6.98;100.00
85157;BME280;75524;50.698;7.196;2024-02-21T04:01:40;101223.84;;;6.99;100.00
85157;BME280;75524;50.698;7.196;2024-02-21T04:04:07;101225.03;;;6.96;100.00
85157;BME280;75524;50.698;7.196;2024-02-21T04:06:33;101225.03;;;6.96;100.00
85157;BME280;75524;50.698;7.196;2024-02-21T04:09:00;101232.25;;;6.96;100.00
85157;BME280;75524;50.698;7.196;2024-02-21T04:11:26;101219.31;;;6.99;100.00
85157;BME280;75524;50.698;7.196;2024-02-21T04:13:53;101213.94;;;6.99;100.00
85157;BME280;75524;50.698;7.196;2024-02-21T04:16:19;101217.63;;;6.98;100.00
85157;BME280;75524;50.698;7.196;2024-02-21T04:18:46;101217.63;;;6.98;100.00
85157;BME280;75524;50.698;7.196;2024-02-21T04:21:14;101223.69;;;7.00;100.00
85157;BME280;75524;50.698;7.196;2024-02-21T04:23:41;101230.72;;;7.01;100.00
85157;BME280;75524;50.698;7.196;2024-02-21T04:26:08;101227.03;;;7.02;100.00
85157;BME280;75524;50.698;7.196;2024-02-21T04:28:35;101233.88;;;7.05;100.00
85157;BME280;75524;50.698;7.196;2024-02-21T04:31:01;101230.19;;;7.06;100.00
85157;BME280;75524;50.698;7.196;2024-02-21T04:33:28;101232.06;;;7.05;100.00
85157;BME280;75524;50.698;7.196;2024-02-21T04:35:54;101225.69;;;7.06;100.00
85157;BME280;75524;50.698;7.196;2024-02-21T04:38:21;101218.44;;;7.07;100.00
85157;BME280;75524;50.698;7.196;2024-02-21T04:40:47;101228.00;;;7.09;100.00
85157;BME280;75524;50.698;7.196;2024-02-21T04:43:15;101218.94;;;7.11;100.00
85157;BME280;75524;50.698;7.196;2024-02-21T04:45:41;101222.44;;;7.11;100.00
85157;BME280;75524;50.698;7.196;2024-02-21T04:48:07;101219.78;;;7.11;100.00
85157;BME280;75524;50.698;7.196;2024-02-21T04:50:34;101217.94;;;7.12;100.00
85157;BME280;75524;50.698;7.196;2024-02-21T04:53:00;101216.25;;;7.11;100.00
85157;BME280;75524;50.698;7.196;2024-02-21T04:55:27;101207.34;;;7.10;100.00
85157;BME280;75524;50.698;7.196;2024-02-21T04:57:54;101206.50;;;7.09;100.00
85157;BME280;75524;50.698;7.196;2024-02-21T05:00:20;101213.06;;;7.07;100.00
85157;BME280;75524;50.698;7.196;2024-02-21T05:02:46;101211.22;;;7.07;100.00
85157;BME280;75524;50.698;7.196;2024-02-21T05:05:13;101218.25;;;7.08;100.00
85157;BME280;75524;50.698;7.196;2024-02-21T05:07:41;101209.56;;;7.06;100.00
85157;BME280;75524;50.698;7.196;2024-02-21T05:10:08;101210.38;;;7.07;100.00
85157;BME280;75524;50.698;7.196;2024-02-21T05:12:35;101212.41;;;7.05;100.00
85157;BME280;75524;50.698;7.196;2024-02-21T05:15:03;101204.34;;;7.05;100.00
85157;BME280;75524;50.698;7.196;2024-02-21T05:17:29;101200.81;;;7.04;100.00
85157;BME280;75524;50.698;7.196;2024-02-21T05:19:56;101199.81;;;7.05;100.00
85157;BME280;75524;50.698;7.196;2024-02-21T05:22:22;101198.97;;;7.05;100.00
85157;BME280;75524;50.698;7.196;2024-02-21T05:24:49;101207.19;;;7.03;100.00
85157;BME280;75524;50.698;7.196;2024-02-21T05:27:15;101197.50;;;7.02;100.00
85157;BME280;75524;50.698;7.196;2024-02-21T05:29:42;101194.81;;;7.02;100.00
85157;BME280;75524;50.698;7.196;2024-02-21T05:32:08;101199.31;;;7.02;100.00
85157;BME280;75524;50.698;7.196;2024-02-21T05:34:35;101198.69;;;7.00;100.00
85157;BME280;75524;50.698;7.196;2024-02-21T05:37:01;101202.19;;;7.00;100.00
85157;BME280;75524;50.698;7.196;2024-02-21T05:39:28;101207.75;;;6.99;100.00
85157;BME280;75524;50.698;7.196;2024-02-21T05:41:55;101191.78;;;6.97;100.00
85157;BME280;75524;50.698;7.196;2024-02-21T05:44:22;101186.25;;;6.99;100.00
85157;BME280;75524;50.698;7.196;2024-02-21T05:46:48;101181.69;;;6.99;100.00
85157;BME280;75524;50.698;7.196;2024-02-21T05:49:15;101173.47;;;7.01;100.00
85157;BME280;75524;50.698;7.196;2024-02-21T05:51:42;101166.44;;;7.00;100.00
85157;BME280;75524;50.698;7.196;2024-02-21T05:54:08;101168.25;;;6.99;100.00
85157;BME280;75524;50.698;7.196;2024-02-21T05:56:34;101167.63;;;6.97;100.00
85157;BME280;75524;50.698;7.196;2024-02-21T05:59:01;101157.03;;;6.96;100.00
85157;BME280;75524;50.698;7.196;2024-02-21T06:01:27;101175.00;;;6.95;100.00
85157;BME280;75524;50.698;7.196;2024-02-21T06:03:54;101167.78;;;6.96;100.00
85157;BME280;75524;50.698;7.196;2024-02-21T06:06:21;101173.50;;;6.92;100.00
85157;BME280;75524;50.698;7.196;2024-02-21T06:08:51;101162.06;;;6.90;100.00
85157;BME280;75524;50.698;7.196;2024-02-21T06:11:17;101175.50;;;6.90;100.00
85157;BME280;75524;50.698;7.196;2024-02-21T06:13:44;101177.88;;;6.94;100.00
85157;BME280;75524;50.698;7.196;2024-02-21T06:16:10;101172.50;;;6.94;100.00
85157;BME280;75524;50.698;7.196;2024-02-21T06:18:37;101169.81;;;6.94;100.00
85157;BME280;75524;50.698;7.196;2024-02-21T06:21:04;101167.13;;;6.94;100.00
85157;BME280;75524;50.698;7.196;2024-02-21T06:23:31;101163.44;;;6.95;100.00
85157;BME280;75524;50.698;7.196;2024-02-21T06:25:57;101154.34;;;6.96;100.00
85157;BME280;75524;50.698;7.196;2024-02-21T06:28:23;101148.97;;;6.96;100.00
85157;BME280;75524;50.698;7.196;2024-02-21T06:30:50;101147.97;;;6.97;100.00
85157;BME280;75524;50.698;7.196;2024-02-21T06:33:17;101149.81;;;6.96;100.00
85157;BME280;75524;50.698;7.196;2024-02-21T06:35:43;101161.22;;;6.98;100.00
85157;BME280;75524;50.698;7.196;2024-02-21T06:38:13;101154.00;;;6.99;100.00
85157;BME280;75524;50.698;7.196;2024-02-21T06:40:40;101155.69;;;7.00;100.00
85157;BME280;75524;50.698;7.196;2024-02-21T06:43:06;101143.75;;;7.02;100.00
85157;BME280;75524;50.698;7.196;2024-02-21T06:45:33;101152.81;;;7.01;100.00
85157;BME280;75524;50.698;7.196;2024-02-21T06:47:59;101148.63;;;6.99;100.00
85157;BME280;75524;50.698;7.196;2024-02-21T06:50:26;101152.31;;;6.98;100.00
85157;BME280;75524;50.698;7.196;2024-02-21T06:52:53;101148.63;;;6.99;100.00
85157;BME280;75524;50.698;7.196;2024-02-21T06:55:19;101140.22;;;7.02;100.00
85157;BME280;75524;50.698;7.196;2024-02-21T06:57:46;101139.84;;;7.05;100.00
85157;BME280;75524;50.698;7.196;2024-02-21T07:00:14;101146.72;;;7.07;100.00
85157;BME280;75524;50.698;7.196;2024-02-21T07:02:41;101142.03;;;7.09;100.00
85157;BME280;75524;50.698;7.196;2024-02-21T07:05:08;101141.03;;;7.11;100.00
85157;BME280;75524;50.698;7.196;2024-02-21T07:07:34;101135.97;;;7.07;100.00
85157;BME280;75524;50.698;7.196;2024-02-21T07:10:02;101130.78;;;7.06;100.00
85157;BME280;75524;50.698;7.196;2024-02-21T07:12:28;101127.63;;;7.02;100.00
85157;BME280;75524;50.698;7.196;2024-02-21T07:14:54;101122.72;;;7.06;100.00
85157;BME280;75524;50.698;7.196;2024-02-21T07:17:21;101125.41;;;7.06;100.00
85157;BME280;75524;50.698;7.196;2024-02-21T07:19:48;101117.34;;;7.06;100.00
85157;BME280;75524;50.698;7.196;2024-02-21T07:22:14;101117.91;;;7.01;100.00
85157;BME280;75524;50.698;7.196;2024-02-21T07:24:41;101114.66;;;7.06;100.00
85157;BME280;75524;50.698;7.196;2024-02-21T07:27:07;101108.09;;;7.08;100.00
85157;BME280;75524;50.698;7.196;2024-02-21T07:29:33;101110.47;;;7.12;99.67
85157;BME280;75524;50.698;7.196;2024-02-21T07:32:00;101107.91;;;7.10;99.67
85157;BME280;75524;50.698;7.196;2024-02-21T07:34:27;101108.28;;;7.07;98.97
85157;BME280;75524;50.698;7.196;2024-02-21T07:36:54;101103.59;;;7.09;98.63
85157;BME280;75524;50.698;7.196;2024-02-21T07:39:20;101100.34;;;7.14;98.64
85157;BME280;75524;50.698;7.196;2024-02-21T07:41:47;101103.53;;;7.17;99.06
85157;BME280;75524;50.698;7.196;2024-02-21T07:44:15;101090.59;;;7.21;97.98
85157;BME280;75524;50.698;7.196;2024-02-21T07:46:41;101099.97;;;7.25;96.60
85157;BME280;75524;50.698;7.196;2024-02-21T07:49:08;101089.22;;;7.25;97.14
85157;BME280;75524;50.698;7.196;2024-02-21T07:51:34;101104.50;;;7.24;96.45
85157;BME280;75524;50.698;7.196;2024-02-21T07:54:02;101102.47;;;7.27;96.33
85157;BME280;75524;50.698;7.196;2024-02-21T07:56:30;101104.97;;;7.28;95.94
85157;BME280;75524;50.698;7.196;2024-02-21T07:58:57;101101.75;;;7.33;95.76
85157;BME280;75524;50.698;7.196;2024-02-21T08:01:24;101107.63;;;7.36;95.19
85157;BME280;75524;50.698;7.196;2024-02-21T08:03:50;101103.56;;;7.40;94.80
85157;BME280;75524;50.698;7.196;2024-02-21T08:06:17;101107.91;;;7.41;93.12
85157;BME280;75524;50.698;7.196;2024-02-21T08:08:43;101105.06;;;7.43;93.49
85157;BME280;75524;50.698;7.196;2024-02-21T08:11:10;101104.69;;;7.46;92.92
85157;BME280;75524;50.698;7.196;2024-02-21T08:13:36;101096.63;;;7.46;92.50
85157;BME280;75524;50.698;7.196;2024-02-21T08:16:03;101093.41;;;7.51;91.95
85157;BME280;75524;50.698;7.196;2024-02-21T08:18:30;101100.19;;;7.62;92.59
85157;BME280;75524;50.698;7.196;2024-02-21T08:20:56;101096.97;;;7.66;91.93
85157;BME280;75524;50.698;7.196;2024-02-21T08:23:23;101080.97;;;7.73;91.70
85157;BME280;75524;50.698;7.196;2024-02-21T08:25:50;101074.09;;;7.70;91.84
85157;BME280;75524;50.698;7.196;2024-02-21T08:28:16;101071.41;;;7.70;91.28
85157;BME280;75524;50.698;7.196;2024-02-21T08:30:43;101062.78;;;7.75;90.85
85157;BME280;75524;50.698;7.196;2024-02-21T08:33:17;101061.78;;;7.76;89.28
85157;BME280;75524;50.698;7.196;2024-02-21T08:35:43;101064.94;;;7.80;89.29
85157;BME280;75524;50.698;7.196;2024-02-21T08:38:10;101057.72;;;7.80;88.20
85157;BME280;75524;50.698;7.196;2024-02-21T08:40:36;101046.09;;;7.80;88.22
85157;BME280;75524;50.698;7.196;2024-02-21T08:43:03;101037.00;;;7.81;87.07
85157;BME280;75524;50.698;7.196;2024-02-21T08:45:30;101032.03;;;7.93;87.75
85157;BME280;75524;50.698;7.196;2024-02-21T08:47:56;101034.16;;;7.97;86.67
85157;BME280;75524;50.698;7.196;2024-02-21T08:50:22;101028.34;;;8.08;87.40
85157;BME280;75524;50.698;7.196;2024-02-21T08:52:54;101019.06;;;8.11;85.78
85157;BME280;75524;50.698;7.196;2024-02-21T08:55:21;101016.19;;;8.13;85.89
85157;BME280;75524;50.698;7.196;2024-02-21T08:57:48;101019.88;;;8.12;85.01
85157;BME280;75524;50.698;7.196;2024-02-21T09:00:15;101015.81;;;8.01;84.46
85157;BME280;75524;50.698;7.196;2024-02-21T09:02:42;101011.00;;;8.11;85.93
85157;BME280;75524;50.698;7.196;2024-02-21T09:05:13;101004.03;;;8.17;86.19
85157;BME280;75524;50.698;7.196;2024-02-21T09:07:39;101009.69;;;8.22;84.98
85157;BME280;75524;50.698;7.196;2024-02-21T09:10:06;100994.81;;;8.26;85.10
85157;BME280;75524;50.698;7.196;2024-02-21T09:12:33;100982.22;;;8.27;84.10
85157;BME280;75524;50.698;7.196;2024-02-21T09:14:59;100982.09;;;8.35;85.30
85157;BME280;75524;50.698;7.196;2024-02-21T09:17:26;100975.47;;;8.46;84.51
85157;BME280;75524;50.698;7.196;2024-02-21T09:19:55;100976.16;;;8.54;84.30
85157;BME280;75524;50.698;7.196;2024-02-21T09:22:25;100965.50;;;8.61;82.31
85157;BME280;75524;50.698;7.196;2024-02-21T09:24:52;100958.97;;;8.55;81.45
85157;BME280;75524;50.698;7.196;2024-02-21T09:27:18;100957.09;;;8.71;82.20
85157;BME280;75524;50.698;7.196;2024-02-21T09:29:44;100957.75;;;8.73;80.88
85157;BME280;75524;50.698;7.196;2024-02-21T09:32:11;100959.47;;;8.81;79.58
85157;BME280;75524;50.698;7.196;2024-02-21T09:34:38;100951.69;;;8.71;79.50
85157;BME280;75524;50.698;7.196;2024-02-21T09:37:06;100951.69;;;8.71;80.70
85157;BME280;75524;50.698;7.196;2024-02-21T09:39:32;100947.28;;;8.85;81.17
85157;BME280;75524;50.698;7.196;2024-02-21T09:42:05;100944.00;;;8.89;80.12
85157;BME280;75524;50.698;7.196;2024-02-21T09:44:40;100942.78;;;8.92;78.58
85157;BME280;75524;50.698;7.196;2024-02-21T09:47:10;100928.50;;;8.92;78.24
85157;BME280;75524;50.698;7.196;2024-02-21T09:49:40;100930.41;;;8.98;78.42
85157;BME280;75524;50.698;7.196;2024-02-21T09:52:07;100929.56;;;8.97;78.41
85157;BME280;75524;50.698;7.196;2024-02-21T09:54:35;100923.59;;;9.23;79.49
85157;BME280;75524;50.698;7.196;2024-02-21T09:57:02;100919.44;;;9.21;78.88
85157;BME280;75524;50.698;7.196;2024-02-21T09:59:32;100913.59;;;9.46;79.68
85157;BME280;75524;50.698;7.196;2024-02-21T10:02:00;100908.69;;;9.56;78.40
85157;BME280;75524;50.698;7.196;2024-02-21T10:04:29;100912.28;;;9.63;76.95
85157;BME280;75524;50.698;7.196;2024-02-21T10:06:57;100903.78;;;9.66;76.94
85157;BME280;75524;50.698;7.196;2024-02-21T10:09:24;100894.66;;;9.67;75.73
85157;BME280;75524;50.698;7.196;2024-02-21T10:11:55;100900.03;;;9.61;75.19
85157;BME280;75524;50.698;7.196;2024-02-21T10:14:22;100890.53;;;9.71;76.50
85157;BME280;75524;50.698;7.196;2024-02-21T10:16:56;100887.84;;;9.71;76.40
85157;BME280;75524;50.698;7.196;2024-02-21T10:19:25;100876.28;;;9.84;75.10
85157;BME280;75524;50.698;7.196;2024-02-21T10:22:02;100868.97;;;9.78;73.99
85157;BME280;75524;50.698;7.196;2024-02-21T10:24:34;100871.09;;;9.83;74.63
85157;BME280;75524;50.698;7.196;2024-02-21T10:27:06;100864.25;;;9.87;75.29
85157;BME280;75524;50.698;7.196;2024-02-21T10:29:35;100876.94;;;9.93;74.15
85157;BME280;75524;50.698;7.196;2024-02-21T10:32:05;100870.31;;;9.96;74.04
85157;BME280;75524;50.698;7.196;2024-02-21T10:34:33;100878.47;;;10.09;73.29
85157;BME280;75524;50.698;7.196;2024-02-21T10:37:04;100874.94;;;10.09;72.72
85157;BME280;75524;50.698;7.196;2024-02-21T10:39:32;100869.78;;;10.20;72.76
85157;BME280;75524;50.698;7.196;2024-02-21T10:42:01;100870.03;;;10.32;72.23
85157;BME280;75524;50.698;7.196;2024-02-21T10:44:32;100871.16;;;10.51;72.50
85157;BME280;75524;50.698;7.196;2024-02-21T10:46:59;100868.91;;;10.62;71.13
85157;BME280;75524;50.698;7.196;2024-02-21T10:49:26;100870.56;;;10.63;71.62
85157;BME280;75524;50.698;7.196;2024-02-21T10:52:09;100865.59;;;10.73;68.81
85157;BME280;75524;50.698;7.196;2024-02-21T10:54:53;100863.06;;;10.58;69.18
85157;BME280;75524;50.698;7.196;2024-02-21T10:57:24;100856.03;;;10.70;69.19
85157;BME280;75524;50.698;7.196;2024-02-21T10:59:53;100853.53;;;10.82;69.13
85157;BME280;75524;50.698;7.196;2024-02-21T11:02:21;100858.13;;;10.95;68.39
85157;BME280;75524;50.698;7.196;2024-02-21T11:04:49;100847.09;;;10.90;67.78
85157;BME280;75524;50.698;7.196;2024-02-21T11:07:16;100854.16;;;11.04;67.81
85157;BME280;75524;50.698;7.196;2024-02-21T11:09:51;100847.09;;;11.24;68.40
85157;BME280;75524;50.698;7.196;2024-02-21T11:12:22;100840.00;;;11.23;66.66
85157;BME280;75524;50.698;7.196;2024-02-21T11:14:49;100831.47;;;11.12;65.88
85157;BME280;75524;50.698;7.196;2024-02-21T11:17:19;100826.50;;;11.02;65.88
85157;BME280;75524;50.698;7.196;2024-02-21T11:19:47;100814.25;;;11.07;65.65
85157;BME280;75524;50.698;7.196;2024-02-21T11:22:18;100814.00;;;11.15;66.39
85157;BME280;75524;50.698;7.196;2024-02-21T11:24:45;100800.09;;;10.98;64.13
85157;BME280;75524;50.698;7.196;2024-02-21T11:27:16;100790.91;;;11.19;66.17
85157;BME280;75524;50.698;7.196;2024-02-21T11:29:47;100797.59;;;11.10;65.05
85157;BME280;75524;50.698;7.196;2024-02-21T11:32:15;100777.19;;;11.14;66.00
85157;BME280;75524;50.698;7.196;2024-02-21T11:34:55;100774.66;;;11.26;65.64
85157;BME280;75524;50.698;7.196;2024-02-21T11:37:25;100757.44;;;11.13;66.04
85157;BME280;75524;50.698;7.196;2024-02-21T11:39:52;100748.91;;;11.16;65.98
85157;BME280;75524;50.698;7.196;2024-02-21T11:42:19;100733.66;;;11.35;66.22
85157;BME280;75524;50.698;7.196;2024-02-21T11:44:46;100721.53;;;11.51;66.80
85157;BME280;75524;50.698;7.196;2024-02-21T11:47:14;100716.56;;;11.48;64.92
85157;BME280;75524;50.698;7.196;2024-02-21T11:49:45;100700.69;;;11.59;63.96
85157;BME280;75524;50.698;7.196;2024-02-21T11:52:16;100690.63;;;11.73;64.57
85157;BME280;75524;50.698;7.196;2024-02-21T11:54:45;100689.47;;;11.55;65.46
85157;BME280;75524;50.698;7.196;2024-02-21T11:57:12;100687.13;;;11.65;65.17
85157;BME280;75524;50.698;7.196;2024-02-21T11:59:39;100676.22;;;11.79;64.51
85157;BME280;75524;50.698;7.196;2024-02-21T12:02:06;100681.19;;;11.82;64.55
85157;BME280;75524;50.698;7.196;2024-02-21T12:04:33;100674.25;;;11.61;63.67
85157;BME280;75524;50.698;7.196;2024-02-21T12:07:01;100665.34;;;11.53;64.11
85157;BME280;75524;50.698;7.196;2024-02-21T12:09:30;100654.59;;;11.79;65.32
85157;BME280;75524;50.698;7.196;2024-02-21T12:12:19;100661.91;;;11.72;64.71
85157;BME280;75524;50.698;7.196;2024-02-21T12:14:46;100648.94;;;11.80;64.27
85157;BME280;75524;50.698;7.196;2024-02-21T12:17:12;100650.03;;;11.73;64.87
85157;BME280;75524;50.698;7.196;2024-02-21T12:19:39;100632.94;;;11.79;64.72
85157;BME280;75524;50.698;7.196;2024-02-21T12:22:05;100629.06;;;11.93;65.27
85157;BME280;75524;50.698;7.196;2024-02-21T12:24:32;100617.44;;;11.86;63.87
85157;BME280;75524;50.698;7.196;2024-02-21T12:26:59;100621.00;;;11.86;64.42
85157;BME280;75524;50.698;7.196;2024-02-21T12:29:26;100613.03;;;11.98;64.46
85157;BME280;75524;50.698;7.196;2024-02-21T12:31:53;100598.38;;;12.06;64.46
85157;BME280;75524;50.698;7.196;2024-02-21T12:34:21;100582.00;;;11.94;63.56
85157;BME280;75524;50.698;7.196;2024-02-21T12:37:03;100580.81;;;11.83;63.14
85157;BME280;75524;50.698;7.196;2024-02-21T12:39:30;100564.16;;;11.86;64.19
85157;BME280;75524;50.698;7.196;2024-02-21T12:41:58;100584.72;;;11.94;64.85
85157;BME280;75524;50.698;7.196;2024-02-21T12:44:24;100579.44;;;11.74;64.25
85157;BME280;75524;50.698;7.196;2024-02-21T12:46:51;100570.34;;;11.68;64.03
85157;BME280;75524;50.698;7.196;2024-02-21T12:49:21;100584.50;;;11.64;64.57
85157;BME280;75524;50.698;7.196;2024-02-21T12:51:48;100563.44;;;11.73;64.21
85157;BME280;75524;50.698;7.196;2024-02-21T12:54:14;100558.25;;;11.71;64.06
85157;BME280;75524;50.698;7.196;2024-02-21T12:56:41;100555.03;;;11.81;64.36